Time;durP1;ratioP1;P1;durP2;ratioP2;P2;SDS_P1;SDS_P2;PMS_P1;PMS_P2;Temp;Humidity;BMP_temperature;BMP_pressure;BME280_temperature;BME280_humidity;BME280_pressure;Samples;Min_cycle;Max_cycle;Signal;HPM_P1;HPM_P2
2022/08/19 00:00:10;;;;;;;15.97;14.47;;;;;;;17.11;100.00;100506.28;695910;28;1309;-41
2022/08/19 00:00:31;;;;;;;15.40;14.00;;;;;;;17.08;100.00;100506.41;695812;28;1494;-43
2022/08/19 00:00:51;;;;;;;15.27;13.83;;;;;;;17.07;100.00;100505.53;694568;28;1501;-42
2022/08/19 00:01:11;;;;;;;15.60;14.07;;;;;;;17.05;100.00;100501.22;694706;28;1184;-42
2022/08/19 00:01:33;;;;;;;15.53;14.13;;;;;;;17.04;100.00;100504.78;693348;28;4242;-41
2022/08/19 00:01:56;;;;;;;15.63;14.13;;;;;;;17.08;100.00;100509.88;690273;28;1437;-42
2022/08/19 00:02:16;;;;;;;15.57;14.18;;;;;;;17.10;100.00;100504.53;690389;28;1346;-42
2022/08/19 00:02:37;;;;;;;15.70;14.20;;;;;;;17.11;100.00;100501.00;688789;28;1323;-42
2022/08/19 00:02:57;;;;;;;15.70;14.20;;;;;;;17.06;100.00;100500.28;690192;28;1556;-43
2022/08/19 00:03:17;;;;;;;15.97;14.57;;;;;;;16.99;100.00;100500.50;690413;28;1385;-41
2022/08/19 00:03:38;;;;;;;16.23;14.83;;;;;;;16.98;100.00;100498.78;692740;28;1493;-41
2022/08/19 00:04:01;;;;;;;16.33;14.90;;;;;;;17.03;100.00;100503.91;695015;28;1404;-41
2022/08/19 00:04:25;;;;;;;15.70;14.30;;;;;;;17.07;100.00;100504.66;693341;28;4922;-41
2022/08/19 00:04:48;;;;;;;16.05;14.45;;;;;;;17.00;100.00;100501.34;694112;28;1345;-41
2022/08/19 00:05:10;;;;;;;16.50;14.90;;;;;;;16.97;100.00;100504.97;695179;28;1134;-44
2022/08/19 00:05:31;;;;;;;15.73;14.23;;;;;;;16.97;100.00;100494.41;695434;28;1261;-41
2022/08/19 00:05:51;;;;;;;16.15;14.65;;;;;;;17.00;100.00;100510.16;694387;28;1213;-42
2022/08/19 00:06:12;;;;;;;16.23;14.70;;;;;;;16.90;100.00;100500.81;693871;28;1356;-41
2022/08/19 00:06:34;;;;;;;16.67;15.17;;;;;;;16.81;100.00;100509.03;695013;28;1345;-42
2022/08/19 00:06:55;;;;;;;16.58;15.07;;;;;;;16.80;100.00;100507.28;694762;28;1426;-40
2022/08/19 00:07:16;;;;;;;16.63;15.05;;;;;;;16.84;100.00;100501.00;694099;28;4713;-41
2022/08/19 00:07:37;;;;;;;16.60;15.00;;;;;;;16.91;100.00;100507.81;694412;28;1227;-41
2022/08/19 00:07:57;;;;;;;16.90;15.30;;;;;;;16.92;100.00;100506.03;695348;28;1164;-41
2022/08/19 00:08:18;;;;;;;16.75;15.15;;;;;;;16.89;100.00;100504.38;694456;28;900;-41
2022/08/19 00:08:38;;;;;;;16.83;15.30;;;;;;;16.87;100.00;100506.16;695581;28;1485;-41
2022/08/19 00:09:00;;;;;;;16.90;15.38;;;;;;;16.79;100.00;100508.19;695412;28;1332;-41
2022/08/19 00:09:22;;;;;;;17.17;15.52;;;;;;;16.73;100.00;100511.91;694688;28;1226;-41
2022/08/19 00:09:42;;;;;;;16.80;15.30;;;;;;;16.70;100.00;100512.00;694604;28;1381;-43
2022/08/19 00:10:06;;;;;;;17.13;15.60;;;;;;;16.71;100.00;100507.59;695343;28;1052;-43
2022/08/19 00:10:26;;;;;;;17.35;15.75;;;;;;;16.71;100.00;100510.22;694134;28;4351;-41
2022/08/19 00:10:47;;;;;;;17.30;15.70;;;;;;;16.68;100.00;100509.44;695126;28;1975;-43
2022/08/19 00:11:08;;;;;;;17.25;15.65;;;;;;;16.67;100.00;100512.13;694953;28;1354;-41
2022/08/19 00:11:28;;;;;;;17.27;15.68;;;;;;;16.68;100.00;100514.72;697002;28;1312;-41
2022/08/19 00:11:50;;;;;;;16.20;14.80;;;;;;;16.70;100.00;100509.38;694712;28;1150;-41
2022/08/19 00:12:11;;;;;;;16.65;15.15;;;;;;;16.68;100.00;100509.44;693818;28;1364;-40
2022/08/19 00:12:31;;;;;;;17.30;15.70;;;;;;;16.68;100.00;100513.81;694754;28;1222;-42
2022/08/19 00:12:51;;;;;;;17.07;15.47;;;;;;;16.69;100.00;100508.50;695450;28;1525;-43
2022/08/19 00:13:12;;;;;;;17.07;15.47;;;;;;;16.69;100.00;100510.28;694975;28;1184;-43
2022/08/19 00:13:33;;;;;;;16.33;14.82;;;;;;;16.66;100.00;100516.50;695222;28;4489;-41
2022/08/19 00:13:54;;;;;;;16.60;15.02;;;;;;;16.64;100.00;100510.44;694345;28;1392;-42
2022/08/19 00:14:17;;;;;;;16.45;14.95;;;;;;;16.69;100.00;100508.50;693956;28;1099;-42
2022/08/19 00:14:38;;;;;;;17.02;15.43;;;;;;;16.76;100.00;100510.94;694546;28;1286;-42
2022/08/19 00:14:58;;;;;;;16.65;15.05;;;;;;;16.82;100.00;100510.72;693966;28;1373;-48
2022/08/19 00:15:21;;;;;;;16.10;14.70;;;;;;;16.80;100.00;100507.28;694462;28;1406;-42
2022/08/19 00:15:44;;;;;;;15.95;14.45;;;;;;;16.77;100.00;100507.41;692215;28;1450;-41
2022/08/19 00:16:06;;;;;;;15.90;14.43;;;;;;;16.77;100.00;100508.25;691417;28;1085;-41
2022/08/19 00:16:26;;;;;;;16.60;15.10;;;;;;;16.78;100.00;100507.34;690910;28;4576;-41
2022/08/19 00:16:48;;;;;;;16.10;14.60;;;;;;;16.78;100.00;100507.34;692439;28;1103;-41
2022/08/19 00:17:09;;;;;;;15.80;14.30;;;;;;;16.76;100.00;100509.16;690979;28;1142;-43
2022/08/19 00:17:29;;;;;;;15.83;14.33;;;;;;;16.77;100.00;100508.25;693498;28;1464;-41
2022/08/19 00:17:50;;;;;;;16.00;14.50;;;;;;;16.77;100.00;100510.03;695862;28;1430;-41
2022/08/19 00:18:11;;;;;;;16.53;15.03;;;;;;;16.74;100.00;100508.34;694847;28;1209;-44
2022/08/19 00:18:31;;;;;;;17.05;15.48;;;;;;;16.69;100.00;100511.13;695057;28;1305;-40
2022/08/19 00:18:55;;;;;;;17.27;15.68;;;;;;;16.62;100.00;100509.59;694796;28;1301;-46
2022/08/19 00:19:16;;;;;;;17.27;15.48;;;;;;;16.58;100.00;100507.97;694029;28;4286;-41
2022/08/19 00:19:36;;;;;;;17.02;15.32;;;;;;;16.55;100.00;100507.25;693708;28;1128;-42
2022/08/19 00:19:57;;;;;;;16.52;14.93;;;;;;;16.50;100.00;100512.63;693766;28;1289;-42
2022/08/19 00:20:20;;;;;;;17.17;15.57;;;;;;;16.47;100.00;100512.75;693662;28;1201;-41
2022/08/19 00:20:41;;;;;;;16.95;15.35;;;;;;;16.48;100.00;100507.41;694671;28;1338;-41
2022/08/19 00:21:03;;;;;;;17.45;15.75;;;;;;;16.48;100.00;100502.13;695058;28;1527;-41
2022/08/19 00:21:26;;;;;;;16.80;15.18;;;;;;;16.43;100.00;100508.47;695479;28;1190;-42
2022/08/19 00:21:46;;;;;;;17.23;15.60;;;;;;;16.40;100.00;100503.31;694875;28;1409;-43
2022/08/19 00:22:08;;;;;;;17.20;15.53;;;;;;;16.39;100.00;100502.41;694851;28;1081;-41
2022/08/19 00:22:29;;;;;;;17.45;15.85;;;;;;;16.39;100.00;100502.41;694286;28;4492;-41
2022/08/19 00:22:49;;;;;;;17.20;15.60;;;;;;;16.42;100.00;100505.00;695034;28;1234;-41
2022/08/19 00:23:10;;;;;;;16.37;14.90;;;;;;;16.49;100.00;100508.28;694032;28;1332;-42
2022/08/19 00:23:33;;;;;;;16.27;14.88;;;;;;;16.52;100.00;100503.78;694756;28;1148;-41
2022/08/19 00:23:57;;;;;;;16.92;15.38;;;;;;;16.56;100.00;100503.66;695424;28;1309;-41
2022/08/19 00:24:19;;;;;;;16.50;15.00;;;;;;;16.55;100.00;100497.53;693850;28;1099;-41
2022/08/19 00:24:40;;;;;;;16.17;14.68;;;;;;;16.57;100.00;100503.59;691401;28;1445;-41
2022/08/19 00:25:01;;;;;;;15.20;13.80;;;;;;;16.64;100.00;100505.16;692182;28;1366;-41
2022/08/19 00:25:21;;;;;;;15.93;14.43;;;;;;;16.66;100.00;100500.69;693578;28;4891;-40
2022/08/19 00:25:42;;;;;;;16.50;14.90;;;;;;;16.59;100.00;100504.44;695179;28;1464;-41
2022/08/19 00:26:06;;;;;;;16.87;15.17;;;;;;;16.59;100.00;100501.81;694390;28;1575;-41
2022/08/19 00:26:28;;;;;;;16.55;15.02;;;;;;;16.64;100.00;100507.81;694431;28;1657;-41
2022/08/19 00:26:48;;;;;;;15.90;14.48;;;;;;;16.69;100.00;100502.38;697623;28;1194;-43
2022/08/19 00:27:09;;;;;;;16.60;15.00;;;;;;;16.70;100.00;100506.75;697606;28;1138;-41
2022/08/19 00:27:29;;;;;;;17.60;15.80;;;;;;;16.67;100.00;100509.47;697282;28;1282;-41
2022/08/19 00:27:50;;;;;;;16.92;15.32;;;;;;;16.62;100.00;100501.69;694412;28;1301;-41
2022/08/19 00:28:10;;;;;;;17.00;15.33;;;;;;;16.58;100.00;100504.50;694420;28;1159;-41
2022/08/19 00:28:31;;;;;;;16.52;14.93;;;;;;;16.57;100.00;100510.69;694471;28;4333;-41
2022/08/19 00:28:52;;;;;;;17.45;15.75;;;;;;;16.52;100.00;100500.28;694266;28;1317;-40
2022/08/19 00:29:16;;;;;;;18.20;16.47;;;;;;;16.48;100.00;100509.19;695222;28;1469;-43
2022/08/19 00:29:36;;;;;;;17.35;15.65;;;;;;;16.45;100.00;100506.66;694509;28;1511;-40
2022/08/19 00:29:58;;;;;;;17.23;15.63;;;;;;;16.39;100.00;100504.22;695391;28;1616;-43
2022/08/19 00:30:19;;;;;;;16.85;15.25;;;;;;;16.39;100.00;100501.56;695535;28;1141;-41
2022/08/19 00:30:41;;;;;;;16.95;15.35;;;;;;;16.38;100.00;100505.13;694451;28;1914;-41
2022/08/19 00:31:07;;;;;;;17.55;15.95;;;;;;;16.32;100.00;100507.06;695092;28;1495;-40
2022/08/19 00:31:27;;;;;;;17.13;15.52;;;;;;;16.32;100.00;100504.41;694363;28;4502;-41
2022/08/19 00:31:49;;;;;;;16.33;14.83;;;;;;;16.36;100.00;100506.94;694960;28;1467;-41
2022/08/19 00:32:10;;;;;;;16.35;14.75;;;;;;;16.42;100.00;100498.81;694547;28;1223;-41
2022/08/19 00:32:31;;;;;;;15.90;14.30;;;;;;;16.49;100.00;100505.63;694885;28;1270;-42
2022/08/19 00:32:51;;;;;;;16.67;14.98;;;;;;;16.54;100.00;100501.06;695254;28;1495;-41
2022/08/19 00:33:11;;;;;;;16.27;14.67;;;;;;;16.56;100.00;100507.19;694148;28;1248;-42
2022/08/19 00:33:32;;;;;;;15.85;14.43;;;;;;;16.57;100.00;100502.75;695565;28;1379;-41
2022/08/19 00:33:54;;;;;;;16.08;14.57;;;;;;;16.56;100.00;100503.66;695648;28;1329;-41
2022/08/19 00:34:14;;;;;;;16.02;14.50;;;;;;;16.53;100.00;100501.97;694208;28;4442;-42
2022/08/19 00:34:35;;;;;;;16.35;14.75;;;;;;;16.52;100.00;100509.03;694376;28;1528;-42
2022/08/19 00:34:55;;;;;;;16.10;14.60;;;;;;;16.54;100.00;100508.16;693954;28;1493;-43
2022/08/19 00:35:17;;;;;;;16.38;14.82;;;;;;;16.56;100.00;100508.94;694291;28;1296;-41
2022/08/19 00:35:38;;;;;;;16.45;14.95;;;;;;;16.55;100.00;100512.50;694685;28;1604;-41
2022/08/19 00:36:04;;;;;;;16.80;15.30;;;;;;;16.47;100.00;100507.47;694085;28;1523;-41
2022/08/19 00:36:25;;;;;;;16.48;14.90;;;;;;;16.49;100.00;100511.78;694083;28;1233;-43
2022/08/19 00:36:45;;;;;;;16.38;14.88;;;;;;;16.50;100.00;100510.00;693521;28;1092;-42
2022/08/19 00:37:06;;;;;;;16.05;14.65;;;;;;;16.49;100.00;100509.16;692687;28;1190;-42
2022/08/19 00:37:26;;;;;;;16.80;15.27;;;;;;;16.49;100.00;100516.19;692887;28;4339;-41
2022/08/19 00:37:48;;;;;;;16.60;15.10;;;;;;;16.46;100.00;100513.66;693996;28;1205;-41
2022/08/19 00:38:09;;;;;;;16.92;15.32;;;;;;;16.47;100.00;100508.31;692418;28;1249;-41
2022/08/19 00:38:29;;;;;;;16.60;15.10;;;;;;;16.49;100.00;100510.91;693808;28;1235;-42
2022/08/19 00:38:52;;;;;;;16.55;15.05;;;;;;;16.48;100.00;100506.56;694863;28;1229;-41
2022/08/19 00:39:15;;;;;;;16.67;15.07;;;;;;;16.43;100.00;100511.13;694964;28;1177;-42
2022/08/19 00:39:36;;;;;;;16.48;14.88;;;;;;;16.44;100.00;100520.75;694072;28;1290;-41
2022/08/19 00:39:58;;;;;;;16.50;15.00;;;;;;;16.35;100.00;100508.69;695164;28;1411;-41
2022/08/19 00:40:19;;;;;;;17.20;15.60;;;;;;;16.28;100.00;100510.69;694705;28;4445;-43
2022/08/19 00:40:46;;;;;;;16.85;15.25;;;;;;;16.34;100.00;100517.56;695241;28;1544;-41
2022/08/19 00:41:07;;;;;;;16.52;14.93;;;;;;;16.36;100.00;100506.94;693248;28;1379;-42
2022/08/19 00:41:28;;;;;;;17.02;15.43;;;;;;;16.37;100.00;100513.97;694457;28;1298;-43
2022/08/19 00:41:50;;;;;;;16.75;15.15;;;;;;;16.36;100.00;100512.22;695240;28;1203;-43
2022/08/19 00:42:11;;;;;;;16.15;14.65;;;;;;;16.36;100.00;100507.81;694835;28;1166;-41
2022/08/19 00:42:32;;;;;;;16.17;14.68;;;;;;;16.40;100.00;100516.50;696093;28;1314;-40
2022/08/19 00:42:53;;;;;;;17.13;15.47;;;;;;;16.31;100.00;100510.59;697817;28;1385;-41
2022/08/19 00:43:19;;;;;;;17.92;16.05;;;;;;;16.32;100.00;100512.31;696776;28;4305;-43
2022/08/19 00:43:40;;;;;;;16.73;15.18;;;;;;;16.35;100.00;100516.63;697805;28;1504;-40
2022/08/19 00:44:10;;;;;;;16.98;15.38;;;;;;;16.37;100.00;100509.53;696431;28;1615;-41
2022/08/19 00:44:31;;;;;;;17.25;15.65;;;;;;;16.42;100.00;100512.91;696345;28;1305;-42
2022/08/19 00:44:51;;;;;;;16.50;15.00;;;;;;;16.39;100.00;100506.84;696265;28;1304;-41
2022/08/19 00:45:16;;;;;;;16.60;15.07;;;;;;;16.36;100.00;100512.22;695310;28;1106;-41
2022/08/19 00:45:37;;;;;;;17.10;15.50;;;;;;;16.28;100.00;100513.34;695053;28;1372;-42
2022/08/19 00:45:57;;;;;;;17.33;15.73;;;;;;;16.22;100.00;100505.59;695268;28;1222;-42
2022/08/19 00:46:18;;;;;;;17.73;16.08;;;;;;;16.21;100.00;100509.13;693602;28;4432;-43
2022/08/19 00:46:42;;;;;;;17.13;15.52;;;;;;;16.25;100.00;100508.13;695385;28;1357;-40
2022/08/19 00:47:02;;;;;;;17.33;15.73;;;;;;;16.30;100.00;100508.00;694776;28;1401;-41
2022/08/19 00:47:23;;;;;;;17.50;15.90;;;;;;;16.32;100.00;100509.69;693390;28;1155;-43
2022/08/19 00:47:45;;;;;;;17.50;15.80;;;;;;;16.32;100.00;100506.16;694747;28;1095;-43
2022/08/19 00:48:05;;;;;;;17.27;15.60;;;;;;;16.29;100.00;100511.53;694006;28;1039;-41
2022/08/19 00:48:25;;;;;;;17.20;15.60;;;;;;;16.35;100.00;100511.34;693917;28;3690;-41
2022/08/19 00:48:46;;;;;;;17.50;15.80;;;;;;;16.39;100.00;100509.47;695472;28;1368;-41
2022/08/19 00:49:15;;;;;;;17.02;15.43;;;;;;;16.36;100.00;100509.59;694319;28;1154;-44
2022/08/19 00:49:41;;;;;;;16.50;15.00;;;;;;;16.41;100.00;100511.16;691596;28;4926;-42
2022/08/19 00:50:01;;;;;;;16.30;14.80;;;;;;;16.41;100.00;100505.88;691941;28;1634;-42
2022/08/19 00:50:22;;;;;;;16.63;15.10;;;;;;;16.44;100.00;100505.78;691910;28;1297;-41
2022/08/19 00:50:44;;;;;;;16.38;14.77;;;;;;;16.42;100.00;100502.34;692717;28;1910;-42
2022/08/19 00:51:05;;;;;;;16.75;15.05;;;;;;;16.34;100.00;100502.56;690979;28;1146;-42
2022/08/19 00:51:29;;;;;;;17.15;15.55;;;;;;;16.25;100.00;100500.22;686998;28;1402;-42
2022/08/19 00:51:52;;;;;;;17.17;15.57;;;;;;;16.19;100.00;100505.69;688661;28;1254;-41
2022/08/19 00:52:16;;;;;;;17.27;15.60;;;;;;;16.15;100.00;100504.06;689468;28;4502;-44
2022/08/19 00:52:44;;;;;;;16.75;15.15;;;;;;;16.18;100.00;100501.31;692423;28;1329;-42
2022/08/19 00:53:06;;;;;;;16.67;15.05;;;;;;;16.25;100.00;100505.50;692515;28;1301;-42
2022/08/19 00:53:29;;;;;;;15.88;14.40;;;;;;;16.33;100.00;100498.22;694742;28;1178;-42
2022/08/19 00:53:50;;;;;;;16.30;14.80;;;;;;;16.41;100.00;100502.41;695101;28;1184;-43
2022/08/19 00:54:11;;;;;;;16.53;15.03;;;;;;;16.41;100.00;100499.75;694681;28;1181;-41
2022/08/19 00:54:32;;;;;;;16.20;14.70;;;;;;;16.37;100.00;100503.41;694831;28;1178;-41
2022/08/19 00:54:53;;;;;;;17.08;15.48;;;;;;;16.37;100.00;100498.97;694501;28;1166;-41
2022/08/19 00:55:20;;;;;;;16.83;15.13;;;;;;;16.34;100.00;100494.66;694028;28;4734;-42
2022/08/19 00:55:44;;;;;;;16.40;14.80;;;;;;;16.38;100.00;100497.19;692471;28;1290;-41
2022/08/19 00:56:06;;;;;;;16.25;14.73;;;;;;;16.42;100.00;100496.19;693592;28;1257;-43
2022/08/19 00:56:27;;;;;;;15.70;14.23;;;;;;;16.48;100.00;100496.00;693678;28;1194;-42
2022/08/19 00:56:50;;;;;;;15.50;13.95;;;;;;;16.54;100.00;100495.81;693813;28;1170;-42
2022/08/19 00:57:16;;;;;;;15.85;14.25;;;;;;;16.58;100.00;100507.97;692707;28;1155;-44
2022/08/19 00:57:40;;;;;;;15.93;14.43;;;;;;;16.54;100.00;100501.06;694903;28;1210;-43
2022/08/19 00:58:06;;;;;;;17.05;15.38;;;;;;;16.49;100.00;100498.59;695111;28;1364;-42
2022/08/19 00:58:29;;;;;;;16.88;15.18;;;;;;;16.44;100.00;100502.28;694601;28;4468;-42
2022/08/19 00:58:50;;;;;;;15.88;14.38;;;;;;;16.44;100.00;100503.16;694603;28;1375;-40
2022/08/19 00:59:11;;;;;;;16.05;14.55;;;;;;;16.47;100.00;100500.41;694073;28;1156;-42
2022/08/19 00:59:35;;;;;;;15.65;14.25;;;;;;;16.52;100.00;100501.13;695331;28;1182;-41
2022/08/19 00:59:59;;;;;;;16.60;14.90;;;;;;;16.50;100.00;100499.44;694848;28;1302;-41
2022/08/19 01:00:22;;;;;;;16.35;14.77;;;;;;;16.50;100.00;100502.09;694131;28;1158;-41
2022/08/19 01:00:42;;;;;;;16.45;14.93;;;;;;;16.46;100.00;100498.69;695278;28;1705;-41
2022/08/19 01:01:04;;;;;;;16.48;14.90;;;;;;;16.43;100.00;100503.19;693644;28;2003;-42
2022/08/19 01:01:25;;;;;;;16.70;15.00;;;;;;;16.37;100.00;100498.13;694723;28;4500;-41
2022/08/19 01:01:46;;;;;;;16.77;15.10;;;;;;;16.31;100.00;100509.72;692333;28;1636;-41
2022/08/19 01:02:07;;;;;;;16.40;14.80;;;;;;;16.26;100.00;100499.31;693221;28;1120;-42
2022/08/19 01:02:30;;;;;;;16.83;15.23;;;;;;;16.22;100.00;100497.69;692412;28;1388;-40
2022/08/19 01:02:52;;;;;;;17.35;15.55;;;;;;;16.20;100.00;100510.06;692569;28;1323;-40
2022/08/19 01:03:19;;;;;;;17.25;15.55;;;;;;;16.23;100.00;100501.19;691484;28;1265;-42
2022/08/19 01:03:40;;;;;;;16.35;14.85;;;;;;;16.28;100.00;100504.53;693512;28;1469;-41
2022/08/19 01:04:00;;;;;;;16.13;14.63;;;;;;;16.30;100.00;100503.59;693723;28;1547;-41
2022/08/19 01:04:20;;;;;;;16.50;14.90;;;;;;;16.28;100.00;100505.41;693671;28;4274;-41
2022/08/19 01:04:41;;;;;;;17.03;15.33;;;;;;;16.30;100.00;100505.38;694790;28;1469;-40
2022/08/19 01:05:06;;;;;;;16.43;14.93;;;;;;;16.33;100.00;100502.63;695151;28;1638;-40
2022/08/19 01:05:28;;;;;;;16.05;14.50;;;;;;;16.36;100.00;100509.59;694865;28;1331;-45
2022/08/19 01:05:51;;;;;;;16.30;14.80;;;;;;;16.35;100.00;100500.78;695268;28;1309;-41
2022/08/19 01:06:12;;;;;;;16.67;15.18;;;;;;;16.28;100.00;100505.41;694590;28;1229;-42
2022/08/19 01:06:35;;;;;;;16.48;14.98;;;;;;;16.26;100.00;100504.59;694404;28;1321;-43
2022/08/19 01:06:57;;;;;;;16.83;15.23;;;;;;;16.23;100.00;100503.84;694836;28;1260;-41
2022/08/19 01:07:18;;;;;;;17.42;15.52;;;;;;;16.18;100.00;100506.59;694581;28;4266;-40
2022/08/19 01:07:40;;;;;;;16.98;15.38;;;;;;;16.21;100.00;100498.59;693407;28;1322;-41
2022/08/19 01:08:03;;;;;;;15.98;14.50;;;;;;;16.24;100.00;100509.06;694906;28;1353;-42
2022/08/19 01:08:23;;;;;;;16.00;14.50;;;;;;;16.31;100.00;100505.31;694607;28;1347;-41
2022/08/19 01:08:44;;;;;;;16.90;15.30;;;;;;;16.34;100.00;100499.94;692565;28;1226;-43
2022/08/19 01:09:05;;;;;;;17.05;15.45;;;;;;;16.30;100.00;100506.22;692386;28;1238;-43
2022/08/19 01:09:25;;;;;;;17.20;15.50;;;;;;;16.23;100.00;100504.69;690008;28;1280;-43
2022/08/19 01:09:46;;;;;;;17.23;15.63;;;;;;;16.22;100.00;100502.94;689769;28;1250;-42
2022/08/19 01:10:18;;;;;;;16.83;15.33;;;;;;;16.20;100.00;100506.53;689435;28;1614;-41
2022/08/19 01:10:48;;;;;;;16.58;14.98;;;;;;;16.21;100.00;100503.84;690759;28;4806;-41
2022/08/19 01:11:09;;;;;;;16.73;15.13;;;;;;;16.21;100.00;100503.00;692462;28;1473;-40
2022/08/19 01:11:35;;;;;;;16.83;15.23;;;;;;;16.21;100.00;100506.50;693172;28;1382;-41
2022/08/19 01:11:56;;;;;;;16.23;14.63;;;;;;;16.23;100.00;100503.84;694253;28;1314;-41
2022/08/19 01:12:16;;;;;;;16.85;15.25;;;;;;;16.17;100.00;100510.13;694879;28;1122;-42
2022/08/19 01:12:38;;;;;;;17.55;15.85;;;;;;;16.15;100.00;100504.06;695071;28;1539;-44
2022/08/19 01:13:00;;;;;;;17.90;16.20;;;;;;;16.14;100.00;100507.59;692571;28;1618;-41
2022/08/19 01:13:25;;;;;;;17.15;15.55;;;;;;;16.12;100.00;100502.38;692444;28;4592;-43
2022/08/19 01:13:46;;;;;;;16.85;15.35;;;;;;;16.15;100.00;100509.34;695303;28;1198;-45
2022/08/19 01:14:08;;;;;;;16.38;14.77;;;;;;;16.17;100.00;100507.50;693978;28;1293;-41
2022/08/19 01:14:29;;;;;;;16.65;14.95;;;;;;;16.17;100.00;100502.22;691982;28;1485;-42
2022/08/19 01:14:50;;;;;;;16.42;14.88;;;;;;;16.15;100.00;100510.19;692833;28;1397;-41
2022/08/19 01:15:13;;;;;;;16.73;15.13;;;;;;;16.12;100.00;100505.00;694245;28;1256;-43
2022/08/19 01:15:41;;;;;;;17.42;15.65;;;;;;;16.10;100.00;100508.59;694559;28;1302;-43
2022/08/19 01:16:06;;;;;;;17.88;16.17;;;;;;;16.04;100.00;100507.00;694959;28;1397;-42
2022/08/19 01:16:28;;;;;;;17.42;15.73;;;;;;;16.06;100.00;100507.84;693429;28;4506;-48
2022/08/19 01:16:54;;;;;;;16.45;14.90;;;;;;;16.08;100.00;100502.53;694652;28;1321;-41
2022/08/19 01:17:15;;;;;;;16.48;14.98;;;;;;;16.10;100.00;100513.88;694481;28;1170;-41
2022/08/19 01:17:39;;;;;;;16.45;14.95;;;;;;;16.14;100.00;100516.41;694270;28;1579;-41
2022/08/19 01:18:04;;;;;;;17.13;15.48;;;;;;;16.11;100.00;100512.97;695199;28;1172;-43
2022/08/19 01:18:26;;;;;;;18.08;16.30;;;;;;;16.09;100.00;100504.22;695253;28;1087;-42
2022/08/19 01:18:48;;;;;;;17.70;16.00;;;;;;;16.08;100.00;100506.00;694512;28;1285;-42
2022/08/19 01:19:20;;;;;;;17.83;16.13;;;;;;;16.03;100.00;100510.56;694519;28;1353;-41
2022/08/19 01:19:43;;;;;;;17.25;15.55;;;;;;;16.06;100.00;100514.88;694586;28;4722;-41
2022/08/19 01:20:07;;;;;;;17.63;15.85;;;;;;;16.08;100.00;100510.44;695554;28;1234;-41
2022/08/19 01:20:27;;;;;;;16.45;14.93;;;;;;;16.10;100.00;100511.25;693495;28;1505;-41
2022/08/19 01:20:48;;;;;;;16.15;14.65;;;;;;;16.11;100.00;100505.91;693244;28;1389;-42
2022/08/19 01:21:26;;;;;;;16.33;14.73;;;;;;;16.11;100.00;100507.69;694696;28;1265;-43
2022/08/19 01:22:10;;;;;;;17.90;16.10;;;;;;;15.99;100.00;100507.16;693881;28;1218;-41
2022/08/19 01:22:39;;;;;;;16.92;15.27;;;;;;;16.07;100.00;100504.28;693442;28;4340;-42
2022/08/19 01:23:00;;;;;;;16.88;15.27;;;;;;;16.07;100.00;100506.06;694091;28;1642;-41
2022/08/19 01:23:20;;;;;;;16.47;14.87;;;;;;;16.07;100.00;100513.97;694676;28;1228;-43
2022/08/19 01:23:43;;;;;;;16.63;15.00;;;;;;;16.09;100.00;100504.22;695333;28;1463;-41
2022/08/19 01:24:04;;;;;;;16.48;14.88;;;;;;;16.14;100.00;100507.59;694098;28;1369;-43
2022/08/19 01:24:24;;;;;;;17.13;15.53;;;;;;;16.13;100.00;100508.50;695020;28;1182;-41
2022/08/19 01:24:45;;;;;;;17.03;15.43;;;;;;;16.11;100.00;100505.06;694930;28;1210;-44
2022/08/19 01:25:06;;;;;;;17.65;16.05;;;;;;;16.03;100.00;100500.00;692008;28;1232;-43
2022/08/19 01:25:35;;;;;;;17.50;15.80;;;;;;;16.05;100.00;100508.75;691932;28;4761;-41
2022/08/19 01:25:55;;;;;;;16.95;15.35;;;;;;;16.12;100.00;100497.09;692160;28;1357;-42
2022/08/19 01:26:20;;;;;;;16.47;14.97;;;;;;;16.19;100.00;100508.34;692415;28;1225;-40
2022/08/19 01:26:43;;;;;;;15.15;13.75;;;;;;;16.21;100.00;100508.28;694063;28;1488;-40
2022/08/19 01:27:05;;;;;;;16.23;14.73;;;;;;;16.23;100.00;100503.84;694270;28;1248;-43
2022/08/19 01:27:25;;;;;;;16.77;15.18;;;;;;;16.22;100.00;100504.75;694984;28;1376;-41
2022/08/19 01:27:48;;;;;;;16.70;15.13;;;;;;;16.22;100.00;100505.59;695152;28;1273;-43
2022/08/19 01:28:15;;;;;;;16.58;14.98;;;;;;;16.21;100.00;100500.38;695383;28;1286;-41
2022/08/19 01:28:36;;;;;;;16.70;15.10;;;;;;;16.16;100.00;100498.72;693753;28;4788;-41
2022/08/19 01:28:58;;;;;;;17.58;15.88;;;;;;;16.14;100.00;100503.22;695269;28;1337;-41
2022/08/19 01:29:18;;;;;;;17.92;16.10;;;;;;;16.12;100.00;100501.53;694531;28;1648;-41
2022/08/19 01:29:42;;;;;;;17.02;15.35;;;;;;;16.15;100.00;100496.16;694236;28;1538;-43
2022/08/19 01:30:03;;;;;;;16.60;15.10;;;;;;;16.17;100.00;100502.22;693612;28;1602;-41
2022/08/19 01:30:28;;;;;;;16.35;14.85;;;;;;;16.17;100.00;100497.84;693300;28;1158;-41
2022/08/19 01:30:49;;;;;;;16.30;14.80;;;;;;;16.16;100.00;100500.53;695657;28;1969;-41
2022/08/19 01:31:15;;;;;;;16.63;15.02;;;;;;;16.19;100.00;100503.06;693595;28;1106;-42
2022/08/19 01:31:36;;;;;;;17.13;15.43;;;;;;;16.16;100.00;100497.88;694777;28;4865;-42
2022/08/19 01:31:57;;;;;;;16.95;15.25;;;;;;;16.13;100.00;100500.59;694689;28;1360;-41
2022/08/19 01:32:19;;;;;;;17.00;15.30;;;;;;;16.11;100.00;100498.00;694504;28;1051;-40
2022/08/19 01:32:39;;;;;;;17.10;15.50;;;;;;;16.09;100.00;100499.84;695114;28;1185;-42
2022/08/19 01:33:00;;;;;;;17.60;15.90;;;;;;;16.07;100.00;100495.50;694926;28;1500;-44
2022/08/19 01:33:21;;;;;;;16.52;15.02;;;;;;;16.09;100.00;100501.59;694648;28;1146;-42
2022/08/19 01:33:41;;;;;;;16.40;14.90;;;;;;;16.07;100.00;100501.63;695221;28;1538;-40
2022/08/19 01:34:03;;;;;;;16.23;14.70;;;;;;;16.06;100.00;100497.31;695235;28;1491;-40
2022/08/19 01:34:24;;;;;;;16.17;14.68;;;;;;;16.09;100.00;100493.69;692196;28;4390;-42
2022/08/19 01:34:46;;;;;;;16.90;15.20;;;;;;;16.12;100.00;100493.63;690296;28;1103;-41
2022/08/19 01:35:08;;;;;;;17.25;15.55;;;;;;;16.08;100.00;100491.97;689820;28;1451;-43
2022/08/19 01:35:31;;;;;;;17.45;15.80;;;;;;;16.00;100.00;100490.44;690545;28;1231;-42
2022/08/19 01:36:02;;;;;;;16.88;15.27;;;;;;;16.03;100.00;100497.38;691058;28;1211;-41
2022/08/19 01:36:41;;;;;;;16.45;14.85;;;;;;;16.07;100.00;100492.88;693812;28;1434;-42
2022/08/19 01:37:10;;;;;;;16.20;14.70;;;;;;;16.11;100.00;100497.16;694678;28;1336;-40
2022/08/19 01:37:42;;;;;;;16.88;15.20;;;;;;;16.13;100.00;100490.03;694139;28;4300;-40
2022/08/19 01:38:07;;;;;;;17.35;15.75;;;;;;;16.11;100.00;100489.25;695226;28;1557;-40
2022/08/19 01:38:31;;;;;;;16.77;15.18;;;;;;;16.13;100.00;100490.94;694548;28;1478;-41
2022/08/19 01:38:53;;;;;;;16.45;14.85;;;;;;;16.16;100.00;100492.59;692612;28;1408;-40
2022/08/19 01:39:18;;;;;;;16.42;14.85;;;;;;;16.15;100.00;100493.50;692083;28;1285;-41
2022/08/19 01:39:40;;;;;;;16.65;15.07;;;;;;;16.11;100.00;100494.50;695111;28;1373;-41
2022/08/19 01:40:00;;;;;;;16.85;15.25;;;;;;;16.09;100.00;100493.69;695460;28;1564;-41
2022/08/19 01:40:24;;;;;;;16.63;15.03;;;;;;;16.11;100.00;100497.16;694038;28;4382;-40
2022/08/19 01:40:45;;;;;;;16.45;14.85;;;;;;;16.09;100.00;100494.56;694931;28;1222;-42
2022/08/19 01:41:05;;;;;;;17.15;15.50;;;;;;;16.08;100.00;100495.47;695096;28;1297;-41
2022/08/19 01:41:26;;;;;;;16.60;15.00;;;;;;;16.07;100.00;100493.72;694376;28;1313;-41
2022/08/19 01:41:47;;;;;;;16.67;15.18;;;;;;;16.13;100.00;100490.03;694710;28;1158;-41
2022/08/19 01:42:09;;;;;;;16.58;15.07;;;;;;;16.18;100.00;100501.31;693347;28;1358;-41
2022/08/19 01:42:31;;;;;;;15.95;14.45;;;;;;;16.20;100.00;100496.00;693123;28;1421;-40